Time;durP1;ratioP1;P1;durP2;ratioP2;P2;SDS_P1;SDS_P2;PMS_P1;PMS_P2;Temp;Humidity;BMP_temperature;BMP_pressure;BME280_temperature;BME280_humidity;BME280_pressure;Samples;Min_cycle;Max_cycle;Signal;HPM_P1;HPM_P2
2022/11/04 00:01:16;;;;;;;;;;;;;;;15.97;57.64;101202.34;5056984;28;1976;-62
2022/11/04 00:03:42;;;;;;;;;;;;;;;16.95;57.94;101205.88;5057095;28;1163;-63
2022/11/04 00:06:08;;;;;;;;;;;;;;;17.62;56.28;101198.75;5057170;28;1144;-63
2022/11/04 00:08:33;;;;;;;;;;;;;;;16.64;58.25;101191.94;5057183;28;1195;-61
2022/11/04 00:13:43;;;;;;;;;;;;;;;16.15;57.68;101186.59;5056815;28;1159;-62
2022/11/04 00:18:52;;;;;;;;;;;;;;;16.66;58.02;101191.66;5056777;28;1164;-61
2022/11/04 00:29:29;;;;;;;;;;;;;;;16.13;57.84;101181.38;5056465;28;1147;-62
2022/11/04 00:34:38;;;;;;;;;;;;;;;17.26;57.30;101176.66;5051477;28;1254;-62
2022/11/04 00:37:05;;;;;;;;;;;;;;;17.04;57.57;101176.81;5056282;28;1183;-62
2022/11/04 00:39:31;;;;;;;;;;;;;;;16.47;58.26;101181.09;5056194;28;1120;-62
2022/11/04 00:41:56;;;;;;;;;;;;;;;16.22;57.80;101168.00;5056133;28;1909;-62
2022/11/04 00:44:22;;;;;;;;;;;;;;;16.06;57.75;101165.13;5056390;28;1202;-62
2022/11/04 00:46:47;;;;;;;;;;;;;;;15.98;57.37;101160.13;5055492;28;1156;-62
2022/11/04 00:49:13;;;;;;;;;;;;;;;16.86;57.85;101158.03;5056501;28;1160;-62
2022/11/04 00:51:38;;;;;;;;;;;;;;;17.66;56.33;101160.56;5056179;28;1226;-62
2022/11/04 00:54:03;;;;;;;;;;;;;;;16.65;58.17;101163.38;5056344;28;1159;-62
2022/11/04 00:56:29;;;;;;;;;;;;;;;16.33;57.89;101161.50;5056097;28;1156;-62
2022/11/04 00:58:54;;;;;;;;;;;;;;;16.16;57.52;101149.81;5056026;28;1120;-62
2022/11/04 01:01:20;;;;;;;;;;;;;;;16.02;57.58;101152.16;5055841;28;1914;-63
2022/11/04 01:03:46;;;;;;;;;;;;;;;16.19;57.91;101147.41;5055860;28;1152;-61
2022/11/04 01:06:11;;;;;;;;;;;;;;;17.73;56.27;101149.31;5056077;28;1191;-62
2022/11/04 01:08:37;;;;;;;;;;;;;;;16.87;57.93;101143.19;5055412;28;1108;-62
2022/11/04 01:11:03;;;;;;;;;;;;;;;16.43;57.82;101144.28;5056200;28;1211;-63
2022/11/04 01:13:28;;;;;;;;;;;;;;;16.27;57.58;101146.09;5056230;28;1234;-62
2022/11/04 01:15:56;;;;;;;;;;;;;;;16.07;57.49;101135.75;5055492;28;1367;-61
2022/11/04 01:18:22;;;;;;;;;;;;;;;15.96;57.28;101140.31;5056465;28;1156;-61
2022/11/04 01:20:47;;;;;;;;;;;;;;;16.72;58.00;101142.00;5055753;28;1116;-64
2022/11/04 01:23:13;;;;;;;;;;;;;;;17.69;56.30;101139.94;5055165;28;1976;-62
2022/11/04 01:25:39;;;;;;;;;;;;;;;16.69;58.03;101138.94;5056027;28;1202;-62
2022/11/04 01:28:04;;;;;;;;;;;;;;;16.34;57.84;101145.84;5055854;28;1085;-62
2022/11/04 01:30:30;;;;;;;;;;;;;;;16.18;57.58;101144.91;5055782;28;1214;-61
2022/11/04 01:32:55;;;;;;;;;;;;;;;16.03;57.39;101132.75;5055896;28;1226;-61
2022/11/04 01:35:21;;;;;;;;;;;;;;;16.72;58.21;101142.00;5055734;28;949;-62
2022/11/04 01:37:46;;;;;;;;;;;;;;;17.62;56.44;101138.25;5055449;28;1120;-60
2022/11/04 01:40:11;;;;;;;;;;;;;;;16.65;57.91;101135.94;5055947;28;1214;-61
2022/11/04 01:42:37;;;;;;;;;;;;;;;16.36;57.85;101130.78;5055893;28;1984;-61
2022/11/04 01:45:02;;;;;;;;;;;;;;;16.17;57.51;101124.91;5055559;28;1412;-61
2022/11/04 01:47:31;;;;;;;;;;;;;;;15.99;57.38;101134.34;5055033;28;958;-61
2022/11/04 01:50:01;;;;;;;;;;;;;;;16.25;58.01;101126.31;5055798;28;1128;-62
2022/11/04 01:52:38;;;;;;;;;;;;;;;17.75;56.16;101125.94;5037396;28;1104;-64
2022/11/04 01:55:06;;;;;;;;;;;;;;;16.68;57.93;101129.09;5055971;28;1121;-63
2022/11/04 01:57:33;;;;;;;;;;;;;;;16.34;57.92;101121.16;5055284;28;1207;-62
2022/11/04 01:59:59;;;;;;;;;;;;;;;16.17;57.76;101124.06;5037218;28;1063;-62
2022/11/04 02:02:25;;;;;;;;;;;;;;;16.03;57.32;101123.66;5055653;28;1918;-63
2022/11/04 02:04:50;;;;;;;;;;;;;;;15.92;57.06;101125.47;5055580;28;1207;-63
2022/11/04 02:07:16;;;;;;;;;;;;;;;16.96;57.74;101129.78;5054789;28;1155;-63
2022/11/04 02:09:41;;;;;;;;;;;;;;;17.38;56.69;101124.19;5055524;28;1151;-62
2022/11/04 02:14:50;;;;;;;;;;;;;;;16.24;57.86;101114.53;5055407;28;1159;-62
2022/11/04 02:17:23;;;;;;;;;;;;;;;16.10;57.55;101115.22;5038030;28;1198;-63
2022/11/04 02:19:52;;;;;;;;;;;;;;;15.94;57.44;101104.13;5037569;28;1187;-60
2022/11/04 02:22:17;;;;;;;;;;;;;;;17.32;57.10;101113.44;5057913;28;1910;-61
2022/11/04 02:24:55;;;;;;;;;;;;;;;17.00;57.41;101103.44;5058629;28;1170;-61
2022/11/04 02:27:29;;;;;;;;;;;;;;;16.41;58.11;101110.78;5059337;28;1140;-61
2022/11/04 02:30:04;;;;;;;;;;;;;;;16.19;57.97;101108.16;5058037;28;1168;-62
2022/11/04 02:32:29;;;;;;;;;;;;;;;16.07;57.59;101102.84;5058912;28;1231;-63
2022/11/04 02:35:05;;;;;;;;;;;;;;;15.91;57.26;101099.16;5058699;28;1112;-62
2022/11/04 02:37:36;;;;;;;;;;;;;;;16.90;57.84;101112.44;5041782;28;1116;-62
2022/11/04 02:40:07;;;;;;;;;;;;;;;17.46;56.48;101100.84;5040911;28;1176;-60
2022/11/04 02:42:39;;;;;;;;;;;;;;;16.52;58.02;101092.47;5046916;28;1975;-61
2022/11/04 02:45:04;;;;;;;;;;;;;;;16.26;57.69;101092.31;5056709;28;1382;-62
2022/11/04 02:47:30;;;;;;;;;;;;;;;16.09;57.59;101095.19;5058275;28;900;-61
2022/11/04 02:49:59;;;;;;;;;;;;;;;15.97;57.26;101092.63;5040866;28;1168;-63
2022/11/04 02:52:45;;;;;;;;;;;;;;;17.40;56.74;101086.28;5058392;28;1175;-63
2022/11/04 02:55:16;;;;;;;;;;;;;;;16.92;57.62;101096.56;5041176;28;1389;-62
2022/11/04 02:57:41;;;;;;;;;;;;;;;16.48;57.58;101094.94;5058493;28;1108;-62
2022/11/04 03:00:10;;;;;;;;;;;;;;;16.26;57.64;101095.06;5039870;28;1051;-62
2022/11/04 03:02:40;;;;;;;;;;;;;;;16.11;57.55;101097.69;5040431;28;1910;-63
2022/11/04 03:05:06;;;;;;;;;;;;;;;15.92;57.46;101087.09;5040443;28;1207;-62
2022/11/04 03:07:32;;;;;;;;;;;;;;;15.88;57.34;101097.75;5040722;28;1168;-62
2022/11/04 03:09:59;;;;;;;;;;;;;;;17.21;57.01;101096.94;5039979;28;1147;-62
2022/11/04 03:12:26;;;;;;;;;;;;;;;17.39;56.65;101095.63;5040012;28;1013;-62
2022/11/04 03:14:53;;;;;;;;;;;;;;;16.57;58.02;101095.25;5040345;28;1165;-62
2022/11/04 03:17:23;;;;;;;;;;;;;;;16.32;57.52;101093.97;5040371;28;1124;-62
2022/11/04 03:19:53;;;;;;;;;;;;;;;16.11;57.57;101098.50;5039641;28;1141;-62
2022/11/04 03:22:19;;;;;;;;;;;;;;;15.97;57.39;101103.59;5040675;28;2004;-63
2022/11/04 03:24:45;;;;;;;;;;;;;;;16.31;57.89;101097.81;5056847;28;1171;-62
2022/11/04 03:27:20;;;;;;;;;;;;;;;17.79;55.89;101105.03;5039863;28;1157;-62
2022/11/04 03:29:49;;;;;;;;;;;;;;;16.73;57.75;101099.72;5057767;28;1108;-62
2022/11/04 03:32:19;;;;;;;;;;;;;;;16.34;58.06;101101.94;5057691;28;1156;-62
2022/11/04 03:34:44;;;;;;;;;;;;;;;16.17;57.31;101100.22;5039262;28;1373;-60
2022/11/04 03:37:09;;;;;;;;;;;;;;;16.02;57.45;101100.06;5039985;28;1117;-60
2022/11/04 03:39:35;;;;;;;;;;;;;;;16.36;58.01;101100.59;5040090;28;1128;-60
2022/11/04 03:42:01;;;;;;;;;;;;;;;17.75;55.81;101103.94;5039771;28;1987;-60
2022/11/04 03:44:26;;;;;;;;;;;;;;;16.76;57.59;101093.69;5057832;28;1120;-60
2022/11/04 03:46:52;;;;;;;;;;;;;;;16.39;57.41;101086.34;5056095;28;1628;-61
2022/11/04 03:49:18;;;;;;;;;;;;;;;16.19;57.63;101089.78;5056501;28;2255;-61
2022/11/04 03:51:44;;;;;;;;;;;;;;;16.05;57.42;101089.41;5052631;28;1782;-63
2022/11/04 03:54:09;;;;;;;;;;;;;;;16.23;57.94;101074.44;5056547;28;1988;-62
2022/11/04 03:56:42;;;;;;;;;;;;;;;17.81;55.54;101073.66;5039221;28;1981;-60
2022/11/04 03:59:26;;;;;;;;;;;;;;;16.86;57.11;101073.69;5030118;28;1806;-59
2022/11/04 04:01:55;;;;;;;;;;;;;;;16.43;57.62;101068.25;5056642;28;2360;-59
2022/11/04 04:04:23;;;;;;;;;;;;;;;16.22;57.54;101072.78;5056585;28;1952;-58
2022/11/04 04:06:49;;;;;;;;;;;;;;;16.12;57.08;101074.63;5056881;28;1152;-58
2022/11/04 04:09:19;;;;;;;;;;;;;;;16.85;57.74;101072.03;5038945;28;1199;-58
2022/11/04 04:11:46;;;;;;;;;;;;;;;17.51;55.91;101070.59;5038479;28;1101;-58
2022/11/04 04:14:38;;;;;;;;;;;;;;;16.65;57.46;101066.44;5055619;28;1172;-59
2022/11/04 04:17:00;;;;;;;;;;;;;;;16.29;57.55;101064.31;5041542;28;1376;-58
2022/11/04 04:19:25;;;;;;;;;;;;;;;16.19;57.12;101067.00;5038633;28;1191;-59
2022/11/04 04:22:11;;;;;;;;;;;;;;;16.04;56.97;101068.53;5055290;28;1974;-58
2022/11/04 04:27:32;;;;;;;;;;;;;;;17.72;55.63;101065.94;5056085;28;1195;-59
2022/11/04 04:29:59;;;;;;;;;;;;;;;16.66;57.74;101068.94;5056038;28;1303;-58
2022/11/04 04:32:25;;;;;;;;;;;;;;;16.32;57.72;101072.03;5056035;28;1235;-58
2022/11/04 04:35:40;;;;;;;;;;;;;;;16.16;57.50;101067.53;5039391;28;2276;-58
2022/11/04 04:37:35;;;;;;;;;;;;;;;16.11;57.79;101070.25;5055089;28;1719;-58
2022/11/04 04:45:30;;;;;;;;;;;;;;;16.35;57.69;101067.94;5040914;28;1100;-57
2022/11/04 04:47:56;;;;;;;;;;;;;;;16.17;57.23;101052.72;5055714;28;1128;-58
2022/11/04 04:50:21;;;;;;;;;;;;;;;16.01;57.17;101060.84;5055969;28;1097;-62
2022/11/04 04:52:50;;;;;;;;;;;;;;;15.95;57.07;101061.91;5037725;28;1121;-61
2022/11/04 04:55:15;;;;;;;;;;;;;;;16.89;57.26;101072.38;5043407;28;1073;-61
2022/11/04 04:57:41;;;;;;;;;;;;;;;17.24;56.57;101077.16;5055607;28;1123;-61
2022/11/04 05:00:07;;;;;;;;;;;;;;;16.45;57.77;101073.47;5055527;28;1135;-63
2022/11/04 05:02:33;;;;;;;;;;;;;;;16.21;57.68;101073.06;5056356;28;1898;-63
2022/11/04 05:05:00;;;;;;;;;;;;;;;16.07;57.62;101075.41;5056159;28;2424;-61
2022/11/04 05:07:25;;;;;;;;;;;;;;;16.81;57.68;101073.66;5056123;28;1155;-60
2022/11/04 05:09:51;;;;;;;;;;;;;;;17.56;56.08;101067.06;5056207;28;1214;-59
2022/11/04 05:12:16;;;;;;;;;;;;;;;16.61;58.00;101074.41;5055341;28;1092;-61
2022/11/04 05:14:42;;;;;;;;;;;;;;;16.31;57.80;101070.38;5055601;28;1120;-64
2022/11/04 05:17:07;;;;;;;;;;;;;;;16.15;57.39;101072.19;5055630;28;1136;-60
2022/11/04 05:19:33;;;;;;;;;;;;;;;16.03;57.47;101085.25;5056235;28;1187;-61
2022/11/04 05:21:58;;;;;;;;;;;;;;;15.88;57.39;101077.75;5056082;28;1910;-63
2022/11/04 05:24:24;;;;;;;;;;;;;;;16.60;57.75;101065.31;5055382;28;1270;-62
2022/11/04 05:26:49;;;;;;;;;;;;;;;17.60;55.86;101074.47;5055855;28;1172;-62
2022/11/04 05:29:15;;;;;;;;;;;;;;;16.60;57.79;101070.00;5055918;28;1132;-63
2022/11/04 05:31:41;;;;;;;;;;;;;;;16.33;57.72;101070.13;5055423;28;1084;-61
2022/11/04 05:34:08;;;;;;;;;;;;;;;16.11;57.79;101073.00;5055670;28;1219;-62
2022/11/04 05:36:34;;;;;;;;;;;;;;;15.96;57.66;101077.25;5037455;28;1168;-61
2022/11/04 05:38:59;;;;;;;;;;;;;;;16.49;58.33;101082.00;5055144;28;1270;-62
2022/11/04 05:41:24;;;;;;;;;;;;;;;17.56;55.97;101078.88;5054708;28;1973;-61
2022/11/04 05:43:50;;;;;;;;;;;;;;;16.61;58.09;101082.63;5055274;28;1239;-62
2022/11/04 05:46:16;;;;;;;;;;;;;;;16.32;57.80;101077.50;5054869;28;1195;-62
2022/11/04 05:48:41;;;;;;;;;;;;;;;16.08;57.75;101077.09;5054547;28;1262;-64
2022/11/04 05:51:07;;;;;;;;;;;;;;;15.99;57.49;101090.47;5055387;28;1247;-63
2022/11/04 05:53:32;;;;;;;;;;;;;;;15.88;57.57;101094.22;5055381;28;1246;-63
2022/11/04 05:55:58;;;;;;;;;;;;;;;16.71;57.80;101093.66;5058061;28;1250;-62
2022/11/04 05:58:23;;;;;;;;;;;;;;;17.59;56.30;101099.50;5059409;28;1275;-62
2022/11/04 06:00:48;;;;;;;;;;;;;;;16.57;58.33;101095.25;5058414;28;1223;-62
2022/11/04 06:03:14;;;;;;;;;;;;;;;16.37;57.71;101099.50;5058413;28;1909;-62
2022/11/04 06:05:39;;;;;;;;;;;;;;;16.16;57.80;101103.19;5058851;28;1849;-62
2022/11/04 06:08:05;;;;;;;;;;;;;;;16.01;57.53;101099.25;5058760;28;1270;-62
2022/11/04 06:10:30;;;;;;;;;;;;;;;15.99;57.94;101095.94;5059314;28;1243;-63
2022/11/04 06:12:56;;;;;;;;;;;;;;;17.47;56.73;101083.25;5058918;28;1175;-64
2022/11/04 06:15:21;;;;;;;;;;;;;;;16.98;57.70;101087.22;5058853;28;1199;-64
2022/11/04 06:17:47;;;;;;;;;;;;;;;16.52;57.89;101082.31;5059003;28;1251;-65
2022/11/04 06:20:12;;;;;;;;;;;;;;;16.29;57.77;101080.78;5058825;28;1223;-64
2022/11/04 06:22:38;;;;;;;;;;;;;;;16.16;57.54;101089.47;5058941;28;1909;-65
2022/11/04 06:25:03;;;;;;;;;;;;;;;16.01;57.68;101085.53;5058340;28;1159;-62
2022/11/04 06:27:29;;;;;;;;;;;;;;;15.90;57.41;101081.03;5058941;28;1180;-62
2022/11/04 06:29:54;;;;;;;;;;;;;;;16.65;57.92;101096.63;5058282;28;1210;-60
2022/11/04 06:32:20;;;;;;;;;;;;;;;17.52;56.48;101105.25;5058244;28;1212;-61
2022/11/04 06:34:45;;;;;;;;;;;;;;;17.46;57.23;101117.34;5058175;28;2425;-61
2022/11/04 06:37:11;;;;;;;;;;;;;;;16.79;56.87;101117.06;5058197;28;1270;-61
2022/11/04 06:39:36;;;;;;;;;;;;;;;16.30;54.98;101106.31;5058349;28;1195;-63
2022/11/04 06:42:02;;;;;;;;;;;;;;;16.11;53.61;101105.91;5058410;28;1987;-61
2022/11/04 06:44:27;;;;;;;;;;;;;;;15.90;52.68;101098.31;5058750;28;1076;-61
2022/11/04 06:46:53;;;;;;;;;;;;;;;15.88;51.82;101094.22;5058350;28;1171;-61
2022/11/04 06:49:19;;;;;;;;;;;;;;;15.81;51.39;101097.16;5058799;28;891;-62
2022/11/04 06:51:44;;;;;;;;;;;;;;;15.76;50.59;101088.03;5058643;28;1128;-62
2022/11/04 06:54:10;;;;;;;;;;;;;;;15.67;50.27;101093.97;5057597;28;1014;-60
2022/11/04 06:56:35;;;;;;;;;;;;;;;15.62;50.16;101091.19;5057454;28;1175;-60
2022/11/04 06:59:01;;;;;;;;;;;;;;;15.51;50.04;101089.44;5057216;28;1088;-61
2022/11/04 07:01:28;;;;;;;;;;;;;;;15.49;49.60;101095.19;5056981;28;1910;-60
2022/11/04 07:03:54;;;;;;;;;;;;;;;15.49;49.45;101094.34;5058363;28;1139;-59
2022/11/04 07:06:19;;;;;;;;;;;;;;;15.49;49.33;101086.13;5065264;28;2669;-61
2022/11/04 07:08:45;;;;;;;;;;;;;;;16.09;51.07;101089.72;5057179;28;1184;-59
2022/11/04 07:11:11;;;;;;;;;;;;;;;15.97;51.98;101089.06;5057227;28;1471;-62
2022/11/04 07:13:36;;;;;;;;;;;;;;;15.69;51.27;101086.31;5056507;28;1088;-62
2022/11/04 07:16:05;;;;;;;;;;;;;;;15.60;50.49;101081.56;5056842;28;1171;-62
2022/11/04 07:18:30;;;;;;;;;;;;;;;15.55;49.71;101085.91;5057611;28;1179;-62
2022/11/04 07:20:56;;;;;;;;;;;;;;;16.55;51.29;101081.78;5057011;28;1006;-62
2022/11/04 07:23:21;;;;;;;;;;;;;;;15.95;51.98;101086.59;5048774;28;1906;-61
2022/11/04 07:25:47;;;;;;;;;;;;;;;15.76;51.28;101085.28;5057177;28;1068;-60
2022/11/04 07:28:12;;;;;;;;;;;;;;;15.80;50.73;101076.31;5055885;28;1381;-59
2022/11/04 07:30:38;;;;;;;;;;;;;;;15.69;49.88;101080.81;5054823;28;1324;-61
2022/11/04 07:33:03;;;;;;;;;;;;;;;15.61;49.41;101075.81;5057450;28;1277;-59
2022/11/04 07:35:29;;;;;;;;;;;;;;;15.57;48.74;101075.53;5055757;28;2059;-60
2022/11/04 07:37:54;;;;;;;;;;;;;;;15.62;49.32;101074.72;5057401;28;1061;-58
2022/11/04 07:40:20;;;;;;;;;;;;;;;16.12;50.82;101077.38;5057025;28;1354;-60
2022/11/04 07:42:45;;;;;;;;;;;;;;;15.80;50.40;101076.31;5057462;28;1910;-60
2022/11/04 07:45:15;;;;;;;;;;;;;;;15.76;49.51;101075.13;5038839;28;1356;-58
2022/11/04 07:47:40;;;;;;;;;;;;;;;15.65;49.10;101076.13;5057430;28;1017;-59
2022/11/04 07:50:06;;;;;;;;;;;;;;;16.33;50.69;101073.69;5057379;28;1280;-57
2022/11/04 07:52:31;;;;;;;;;;;;;;;15.95;50.42;101069.28;5055745;28;1528;-59
2022/11/04 07:54:57;;;;;;;;;;;;;;;15.77;50.01;101070.47;5057020;28;1128;-58
2022/11/04 07:57:22;;;;;;;;;;;;;;;15.70;49.05;101063.31;5056213;28;1458;-59
2022/11/04 07:59:48;;;;;;;;;;;;;;;15.59;48.79;101064.28;5057112;28;1417;-57
2022/11/04 08:02:13;;;;;;;;;;;;;;;15.63;48.36;101062.69;5055755;28;1918;-58
2022/11/04 08:04:39;;;;;;;;;;;;;;;15.53;48.45;101049.72;5056843;28;1830;-56
2022/11/04 08:07:06;;;;;;;;;;;;;;;15.66;47.85;101053.94;5052923;28;1289;-62
2022/11/04 08:09:32;;;;;;;;;;;;;;;15.53;47.73;101057.13;5056576;28;1100;-57
2022/11/04 08:11:57;;;;;;;;;;;;;;;15.51;47.81;101045.56;5055852;28;1503;-60
2022/11/04 08:14:22;;;;;;;;;;;;;;;15.50;47.26;101049.41;5054518;28;1522;-57
2022/11/04 08:16:49;;;;;;;;;;;;;;;15.94;48.41;101052.00;5055181;28;1351;-59
2022/11/04 08:19:14;;;;;;;;;;;;;;;15.95;49.69;101055.56;5051379;28;1474;-61
2022/11/04 08:21:40;;;;;;;;;;;;;;;15.69;49.48;101053.41;5029131;28;1906;-62
2022/11/04 08:24:05;;;;;;;;;;;;;;;15.66;48.55;101047.66;5053390;28;1482;-59
2022/11/04 08:26:31;;;;;;;;;;;;;;;15.57;48.28;101042.63;5053492;28;997;-57
2022/11/04 08:28:56;;;;;;;;;;;;;;;15.54;47.96;101045.06;5042392;28;1466;-57
2022/11/04 08:31:25;;;;;;;;;;;;;;;16.35;49.27;101040.50;5051406;28;1310;-61
2022/11/04 08:33:51;;;;;;;;;;;;;;;15.85;49.56;101037.13;5052652;28;1388;-60
2022/11/04 08:36:17;;;;;;;;;;;;;;;15.73;49.28;101037.28;5053144;28;1362;-58
2022/11/04 08:38:43;;;;;;;;;;;;;;;15.63;48.81;101029.81;5043634;28;1422;-58
2022/11/04 08:41:08;;;;;;;;;;;;;;;15.59;48.54;101023.19;5049666;28;1338;-59
2022/11/04 08:43:34;;;;;;;;;;;;;;;15.77;48.50;101032.09;5038285;28;2253;-60
2022/11/04 08:45:59;;;;;;;;;;;;;;;15.72;48.63;101028.25;5052130;28;1369;-57
2022/11/04 08:48:24;;;;;;;;;;;;;;;15.71;47.95;101023.84;5056037;28;994;-60
2022/11/04 08:50:50;;;;;;;;;;;;;;;15.48;48.13;101015.97;5054100;28;1331;-58
2022/11/04 08:53:16;;;;;;;;;;;;;;;15.53;47.75;101010.53;5056242;28;1089;-59
2022/11/04 08:55:42;;;;;;;;;;;;;;;15.62;48.26;101011.69;5035476;28;1521;-60
2022/11/04 08:58:07;;;;;;;;;;;;;;;16.13;49.62;101008.53;5056055;28;1029;-58
2022/11/04 09:00:33;;;;;;;;;;;;;;;16.15;49.75;101005.53;5045797;28;1393;-61
2022/11/04 09:02:58;;;;;;;;;;;;;;;17.48;50.67;101005.19;5054903;28;1972;-61
2022/11/04 09:05:24;;;;;;;;;;;;;;;16.57;51.29;100999.97;5038415;28;1976;-59
2022/11/04 09:07:49;;;;;;;;;;;;;;;16.31;50.52;101004.50;5053443;28;1686;-59
2022/11/04 09:10:14;;;;;;;;;;;;;;;16.12;49.90;101000.56;5055393;28;1140;-56
2022/11/04 09:12:41;;;;;;;;;;;;;;;16.09;48.83;101001.94;5054265;28;1524;-59
2022/11/04 09:15:06;;;;;;;;;;;;;;;16.06;48.40;100997.78;5055820;28;951;-54
2022/11/04 09:17:32;;;;;;;;;;;;;;;16.56;49.22;100983.78;5052767;28;1509;-55
2022/11/04 09:19:57;;;;;;;;;;;;;;;16.51;50.25;100997.47;5052646;28;1495;-59
2022/11/04 09:22:23;;;;;;;;;;;;;;;16.24;49.40;100985.56;5054750;28;1959;-58
2022/11/04 09:24:48;;;;;;;;;;;;;;;16.16;48.69;100968.75;5055088;28;1136;-58
2022/11/04 09:27:14;;;;;;;;;;;;;;;16.18;47.66;100977.56;5054128;28;1262;-54
2022/11/04 09:29:40;;;;;;;;;;;;;;;16.09;47.55;100974.50;5052186;28;1227;-56
2022/11/04 09:32:06;;;;;;;;;;;;;;;16.08;47.27;100968.16;5058060;28;1291;-57
2022/11/04 09:34:31;;;;;;;;;;;;;;;15.89;47.28;100958.72;5059855;28;1984;-55
2022/11/04 09:36:57;;;;;;;;;;;;;;;16.84;48.52;100965.19;5058043;28;1462;-58
2022/11/04 09:39:23;;;;;;;;;;;;;;;16.28;48.85;100966.63;5059708;28;986;-52
2022/11/04 09:41:48;;;;;;;;;;;;;;;17.43;49.77;100953.78;5056765;28;1903;-62
2022/11/04 09:44:40;;;;;;;;;;;;;;;17.51;50.95;100957.88;5059298;28;910;-56
2022/11/04 09:47:06;;;;;;;;;;;;;;;16.76;51.13;100947.34;5019217;28;1310;-59
2022/11/04 09:49:33;;;;;;;;;;;;;;;16.56;50.16;100945.34;5037581;28;1522;-59
2022/11/04 09:51:58;;;;;;;;;;;;;;;16.48;49.03;100930.22;5053808;28;1303;-60
2022/11/04 09:54:24;;;;;;;;;;;;;;;16.34;48.56;100932.66;5040228;28;1037;-56
2022/11/04 09:56:50;;;;;;;;;;;;;;;16.22;48.04;100921.06;5059449;28;1132;-57
2022/11/04 09:59:19;;;;;;;;;;;;;;;16.72;49.05;100921.50;5039859;28;1439;-59
2022/11/04 10:01:51;;;;;;;;;;;;;;;16.70;49.87;100918.19;5058894;28;1979;-59
2022/11/04 10:04:16;;;;;;;;;;;;;;;16.55;49.27;100921.72;5057781;28;1840;-61
2022/11/04 10:06:45;;;;;;;;;;;;;;;16.29;48.95;100912.59;5058184;28;1135;-57
2022/11/04 10:09:16;;;;;;;;;;;;;;;16.24;48.83;100907.88;5047564;28;1458;-52
2022/11/04 10:11:44;;;;;;;;;;;;;;;16.11;49.00;100900.16;5039897;28;1306;-60
2022/11/04 10:14:16;;;;;;;;;;;;;;;16.39;48.72;100905.19;5057055;28;1282;-59
2022/11/04 10:16:45;;;;;;;;;;;;;;;16.55;48.38;100905.25;5037743;28;1242;-57
2022/11/04 10:19:14;;;;;;;;;;;;;;;16.36;48.46;100896.69;5058372;28;971;-56
2022/11/04 10:21:48;;;;;;;;;;;;;;;16.22;48.35;100901.84;5037372;28;1901;-59
2022/11/04 10:24:32;;;;;;;;;;;;;;;16.85;50.10;100898.19;5053888;28;1243;-57
2022/11/04 10:27:07;;;;;;;;;;;;;;;16.57;49.87;100889.34;5048168;28;1155;-58
2022/11/04 10:29:35;;;;;;;;;;;;;;;16.52;49.14;100889.31;5037407;28;1494;-58
2022/11/04 10:32:02;;;;;;;;;;;;;;;16.52;49.24;100878.34;5027218;28;1133;-58
2022/11/04 10:34:30;;;;;;;;;;;;;;;16.42;48.99;100863.53;5054019;28;1826;-59
2022/11/04 10:36:55;;;;;;;;;;;;;;;16.60;48.94;100853.94;5057011;28;1224;-61
2022/11/04 10:39:32;;;;;;;;;;;;;;;16.62;49.55;100861.91;5039193;28;923;-62
2022/11/04 10:41:58;;;;;;;;;;;;;;;16.43;49.74;100853.34;5039849;28;1959;-60
2022/11/04 10:44:31;;;;;;;;;;;;;;;16.39;49.46;100853.06;5058849;28;1116;-61
2022/11/04 10:47:19;;;;;;;;;;;;;;;16.38;48.82;100845.94;5058683;28;1195;-61
2022/11/04 10:49:45;;;;;;;;;;;;;;;16.20;48.69;100850.00;5049898;28;1131;-63
2022/11/04 10:52:10;;;;;;;;;;;;;;;16.37;48.85;100844.28;5058424;28;1096;-62
2022/11/04 10:54:40;;;;;;;;;;;;;;;16.19;49.11;100826.41;5058577;28;1132;-62
2022/11/04 10:57:05;;;;;;;;;;;;;;;16.17;48.59;100827.75;5058245;28;1167;-62
2022/11/04 10:59:49;;;;;;;;;;;;;;;16.12;48.67;100820.34;5057681;28;1139;-62
2022/11/04 11:02:15;;;;;;;;;;;;;;;15.97;48.72;100812.88;5057367;28;1968;-62
2022/11/04 11:04:43;;;;;;;;;;;;;;;16.13;48.33;100821.16;5062043;28;1904;-63
2022/11/04 11:07:09;;;;;;;;;;;;;;;15.98;48.27;100820.00;5061269;28;1151;-62
2022/11/04 11:09:34;;;;;;;;;;;;;;;15.96;48.08;100816.69;5040003;28;1096;-62
2022/11/04 11:12:01;;;;;;;;;;;;;;;15.85;48.39;100807.63;5058476;28;1135;-62
2022/11/04 11:14:26;;;;;;;;;;;;;;;15.90;48.44;100801.31;5040490;28;1207;-62
2022/11/04 11:16:52;;;;;;;;;;;;;;;15.91;48.29;100806.53;5058374;28;1210;-62
2022/11/04 11:19:18;;;;;;;;;;;;;;;15.88;48.05;100803.53;5057354;28;1128;-61
2022/11/04 11:21:47;;;;;;;;;;;;;;;16.06;48.46;100796.72;5057746;28;1901;-61
2022/11/04 11:24:15;;;;;;;;;;;;;;;16.16;47.84;100798.66;5057558;28;1206;-60
2022/11/04 11:26:46;;;;;;;;;;;;;;;16.19;47.42;100795.41;5057589;28;1230;-61
2022/11/04 11:29:12;;;;;;;;;;;;;;;16.06;47.50;100786.59;5057340;28;1064;-62
2022/11/04 11:31:38;;;;;;;;;;;;;;;16.10;47.21;100789.59;5040294;28;1152;-62
2022/11/04 11:34:06;;;;;;;;;;;;;;;16.18;47.71;100791.81;5058014;28;1124;-61
2022/11/04 11:36:32;;;;;;;;;;;;;;;16.52;49.46;100791.34;5039962;28;2147;-64
2022/11/04 11:39:04;;;;;;;;;;;;;;;16.38;48.66;100792.94;5057277;28;1187;-63
2022/11/04 11:41:30;;;;;;;;;;;;;;;16.22;48.11;100781.13;5055458;28;1963;-61
2022/11/04 11:43:57;;;;;;;;;;;;;;;16.21;47.93;100780.28;5039218;28;1191;-65
2022/11/04 11:46:23;;;;;;;;;;;;;;;16.49;48.35;100785.56;5056737;28;1104;-62
2022/11/04 11:48:49;;;;;;;;;;;;;;;16.68;49.24;100783.94;5039180;28;1371;-61
2022/11/04 11:51:25;;;;;;;;;;;;;;;16.29;49.22;100776.22;5056509;28;1202;-63
2022/11/04 11:54:01;;;;;;;;;;;;;;;16.47;48.37;100776.78;5056778;28;1120;-60
2022/11/04 11:56:29;;;;;;;;;;;;;;;16.42;48.64;100775.69;5057348;28;1147;-61
2022/11/04 11:59:06;;;;;;;;;;;;;;;16.35;48.14;100769.63;5039656;28;1119;-61
2022/11/04 12:01:49;;;;;;;;;;;;;;;16.34;48.05;100769.91;5040003;28;1898;-61
2022/11/04 12:04:15;;;;;;;;;;;;;;;16.39;47.46;100770.72;5035927;28;1931;-62
2022/11/04 12:06:45;;;;;;;;;;;;;;;16.19;47.37;100766.03;5056737;28;1120;-62
2022/11/04 12:09:15;;;;;;;;;;;;;;;16.24;46.71;100762.47;5056346;28;1096;-62
2022/11/04 12:11:47;;;;;;;;;;;;;;;16.98;48.62;100763.06;5057127;28;1219;-62
2022/11/04 12:14:19;;;;;;;;;;;;;;;16.56;48.83;100754.03;5038703;28;1266;-61
2022/11/04 12:16:50;;;;;;;;;;;;;;;16.45;48.20;100757.81;5038955;28;974;-61
2022/11/04 12:19:16;;;;;;;;;;;;;;;16.41;47.28;100763.06;5057048;28;1159;-62
2022/11/04 12:21:44;;;;;;;;;;;;;;;16.31;47.01;100751.25;5055965;28;1971;-63
2022/11/04 12:24:13;;;;;;;;;;;;;;;16.32;47.15;100753.69;5056908;28;1120;-63
2022/11/04 12:26:45;;;;;;;;;;;;;;;16.41;47.16;100752.09;5042791;28;1034;-61
2022/11/04 12:29:10;;;;;;;;;;;;;;;17.02;48.52;100738.63;5041736;28;1191;-61
2022/11/04 12:31:36;;;;;;;;;;;;;;;16.55;48.77;100746.88;5043289;28;1074;-61
2022/11/04 12:34:01;;;;;;;;;;;;;;;16.57;48.05;100736.44;5056684;28;1203;-61
2022/11/04 12:36:27;;;;;;;;;;;;;;;16.68;48.08;100733.69;5056284;28;2513;-61
2022/11/04 12:39:11;;;;;;;;;;;;;;;16.61;48.08;100725.75;5056213;28;1139;-61
2022/11/04 12:41:55;;;;;;;;;;;;;;;16.64;48.14;100727.94;5056257;28;1968;-61
2022/11/04 12:44:41;;;;;;;;;;;;;;;16.64;48.06;100738.09;5056667;28;1136;-60
2022/11/04 12:47:14;;;;;;;;;;;;;;;16.68;47.76;100740.00;5044912;28;1113;-61
2022/11/04 12:49:52;;;;;;;;;;;;;;;16.60;47.16;100735.06;5038838;28;1100;-62
2022/11/04 12:52:36;;;;;;;;;;;;;;;16.51;46.90;100731.22;5055655;28;1008;-62
2022/11/04 12:55:20;;;;;;;;;;;;;;;16.42;46.76;100730.94;5038325;28;1179;-62
2022/11/04 12:57:49;;;;;;;;;;;;;;;16.35;46.34;100720.22;5056029;28;1370;-61
2022/11/04 13:00:23;;;;;;;;;;;;;;;16.33;46.07;100719.69;5055720;28;1187;-59
2022/11/04 13:02:51;;;;;;;;;;;;;;;16.29;46.18;100723.25;5039114;28;1909;-62
2022/11/04 13:05:17;;;;;;;;;;;;;;;16.22;45.93;100732.56;5037722;28;2440;-60
2022/11/04 13:07:45;;;;;;;;;;;;;;;15.93;46.83;100729.50;5055957;28;1147;-63
2022/11/04 13:10:15;;;;;;;;;;;;;;;16.79;50.65;100729.00;5038591;28;1144;-63
2022/11/04 13:12:41;;;;;;;;;;;;;;;17.39;53.67;100721.78;5038648;28;1163;-63
2022/11/04 13:15:13;;;;;;;;;;;;;;;17.76;54.85;100715.00;5038011;28;1140;-63
2022/11/04 13:17:39;;;;;;;;;;;;;;;18.05;55.64;100727.28;5042569;28;1104;-64